Search for airport 
image banner adimage banner adimage banner ad
image banner ad

9N3 - Seamans Field

Located in Factoryville, United States

ICAO - 9N3, IATA -

Data provided by Airmate  

General information

Coordinates: N41°35'22" W75°45'22"
Elevation is 1209 feet MSL.
Magnetic variation is -12° East
View others Airports in Pennsylvania

Operational data

Special qualification required
Current time UTC:
Current local time:
Weather at : KAVP - Wilkes-Barre/Scranton Intl ( 28 km )
METAR: KAVP 091554Z 24007KT 10SM CLR 13/03 A3002 RMK AO2 SLP167 T01280028
TAF: KAVP 091120Z 0912/1012 VRB03KT P6SM BKN200 FM091800 22007KT P6SM OVC025 TEMPO 0918/0919 4SM -RA BR FM091900 21007KT 3SM RA BR OVC015 FM092000 17006KT 3SM SHRA BR OVC010 FM101000 33006KT 6SM BR OVC010
View NOTAMs / SUP AIP / TFR affecting this airport [VIEW]
Communications frequencies: [VIEW]

Runways:

RWY identifierQFULength (ft)Width (ft)SurfaceLDA (ft)
0424°250050ASPH
22204°250050ASPH

Airport contact information

Address: Factoryville United States

Other aviation service providers

Flight schools

Endless Mountains Air, Inc.

Endless Mountains Air, Inc.

Satellite view of 9N3